Time;durP1;ratioP1;P1;durP2;ratioP2;P2;SDS_P1;SDS_P2;PMS_P1;PMS_P2;Temp;Humidity;BMP_temperature;BMP_pressure;BME280_temperature;BME280_humidity;BME280_pressure;Samples;Min_cycle;Max_cycle;Signal;HPM_P1;HPM_P2
2022/04/04 00:01:03;;;;;;;9.48;5.35;;;5.40;99.90;;;;;;5012253;28;20029;-86
2022/04/04 00:03:32;;;;;;;8.32;5.47;;;5.40;99.90;;;;;;5012296;28;20041;-86
2022/04/04 00:05:58;;;;;;;8.57;5.10;;;5.40;99.90;;;;;;5013731;28;20033;-86
2022/04/04 00:08:24;;;;;;;7.03;4.97;;;5.40;99.90;;;;;;5012710;28;20029;-86
2022/04/04 00:10:49;;;;;;;8.63;5.22;;;5.40;99.90;;;;;;5012395;28;20144;-86
2022/04/04 00:13:15;;;;;;;8.77;5.82;;;5.40;99.90;;;;;;5013445;28;20033;-86
2022/04/04 00:15:41;;;;;;;7.18;5.40;;;5.40;99.90;;;;;;5012062;28;20018;-86
2022/04/04 00:18:11;;;;;;;7.93;5.07;;;5.40;99.90;;;;;;5013380;28;20018;-86
2022/04/04 00:20:39;;;;;;;8.20;4.78;;;5.40;99.90;;;;;;5013450;28;20500;-86
2022/04/04 00:23:06;;;;;;;7.22;5.18;;;5.40;99.90;;;;;;5012221;28;20029;-86
2022/04/04 00:25:32;;;;;;;6.78;4.55;;;5.40;99.90;;;;;;5013235;28;20025;-87
2022/04/04 00:27:58;;;;;;;6.53;4.82;;;5.40;99.90;;;;;;5011987;28;20022;-87
2022/04/04 00:30:24;;;;;;;6.53;4.78;;;5.40;99.90;;;;;;5012539;28;20113;-86
2022/04/04 00:32:49;;;;;;;8.40;4.82;;;5.40;99.90;;;;;;5016127;28;20492;-87
2022/04/04 00:35:15;;;;;;;7.43;4.65;;;5.30;99.90;;;;;;5016023;28;20026;-87
2022/04/04 00:37:41;;;;;;;7.60;5.20;;;5.30;99.90;;;;;;5015914;28;20507;-86
2022/04/04 00:40:08;;;;;;;7.55;5.13;;;5.30;99.90;;;;;;5016041;28;20021;-87
2022/04/04 00:42:33;;;;;;;7.55;4.93;;;5.20;99.90;;;;;;5015915;28;20026;-87
2022/04/04 00:44:59;;;;;;;7.05;4.72;;;5.20;99.90;;;;;;5016050;28;20022;-87
2022/04/04 00:47:25;;;;;;;7.78;4.63;;;5.30;99.90;;;;;;5015790;28;20105;-87
2022/04/04 00:49:51;;;;;;;8.60;5.00;;;5.20;99.90;;;;;;5015800;28;20026;-87
2022/04/04 00:52:17;;;;;;;7.63;4.75;;;5.20;99.90;;;;;;5015432;28;20402;-87
2022/04/04 00:54:44;;;;;;;8.93;5.03;;;5.20;99.90;;;;;;5015718;28;20379;-87
2022/04/04 00:57:10;;;;;;;8.07;5.38;;;5.20;99.90;;;;;;5016778;28;20026;-87
2022/04/04 00:59:36;;;;;;;7.63;4.47;;;5.20;99.90;;;;;;5015413;28;20079;-88
2022/04/04 01:02:03;;;;;;;7.43;4.25;;;5.20;99.90;;;;;;5015453;28;20077;-88
2022/04/04 01:04:28;;;;;;;6.15;4.55;;;5.20;99.90;;;;;;5015454;28;20048;-87
2022/04/04 01:06:54;;;;;;;9.43;4.85;;;5.20;99.90;;;;;;5015339;28;20034;-88
2022/04/04 01:09:20;;;;;;;6.30;4.63;;;5.20;99.90;;;;;;5015335;28;20022;-88
2022/04/04 01:12:08;;;;;;;7.15;4.57;;;5.20;99.90;;;;;;5015407;28;20028;-88
2022/04/04 01:14:47;;;;;;;6.78;4.13;;;5.20;99.90;;;;;;5015358;28;20121;-88
2022/04/04 01:17:18;;;;;;;6.97;4.57;;;5.20;99.90;;;;;;5015399;28;20026;-88
2022/04/04 01:19:45;;;;;;;6.70;4.57;;;5.20;99.90;;;;;;5016674;28;20555;-88
2022/04/04 01:22:12;;;;;;;7.40;4.65;;;5.30;99.90;;;;;;5015165;28;20201;-88
2022/04/04 01:24:38;;;;;;;6.43;4.63;;;5.10;99.90;;;;;;5015125;28;20050;-88
2022/04/04 01:27:09;;;;;;;7.10;4.50;;;5.10;99.90;;;;;;5015071;28;20026;-88
2022/04/04 01:29:36;;;;;;;6.68;4.50;;;5.10;99.90;;;;;;5016336;28;20022;-88
2022/04/04 01:32:03;;;;;;;5.68;4.53;;;5.10;99.90;;;;;;5015007;28;20022;-87
2022/04/04 01:34:30;;;;;;;5.95;4.32;;;5.10;99.90;;;;;;5016150;28;20053;-87
2022/04/04 01:36:56;;;;;;;5.22;4.15;;;5.10;99.90;;;;;;5014907;28;20026;-88
2022/04/04 01:39:22;;;;;;;7.72;4.75;;;5.10;99.90;;;;;;5014814;28;20030;-87
2022/04/04 01:41:48;;;;;;;6.70;3.95;;;5.10;99.90;;;;;;5014259;28;20504;-88
2022/04/04 01:44:14;;;;;;;10.15;4.63;;;5.00;99.90;;;;;;5014773;28;20022;-88
2022/04/04 01:46:40;;;;;;;6.93;4.78;;;5.10;99.90;;;;;;5015427;28;20505;-87
2022/04/04 01:49:06;;;;;;;7.68;4.45;;;5.10;99.90;;;;;;5014672;28;20057;-88
2022/04/04 01:51:34;;;;;;;7.82;4.38;;;5.10;99.90;;;;;;5014300;28;20112;-88
2022/04/04 01:54:03;;;;;;;7.40;4.65;;;5.10;99.90;;;;;;5015746;28;20054;-88
2022/04/04 01:56:29;;;;;;;7.10;4.90;;;5.00;99.90;;;;;;5014673;28;20088;-88
2022/04/04 01:58:55;;;;;;;6.43;4.00;;;5.00;99.90;;;;;;5014451;28;20026;-88
2022/04/04 02:01:23;;;;;;;5.97;4.63;;;5.00;99.90;;;;;;5015746;28;20030;-88
2022/04/04 02:03:55;;;;;;;6.80;4.63;;;5.00;99.90;;;;;;5014356;28;20429;-88
2022/04/04 02:06:20;;;;;;;8.27;4.57;;;5.00;99.90;;;;;;5016008;28;20096;-88
2022/04/04 02:08:47;;;;;;;5.93;4.13;;;5.00;99.90;;;;;;5015668;28;20481;-87
2022/04/04 02:11:14;;;;;;;7.25;5.00;;;5.00;99.90;;;;;;5014201;28;20025;-88
2022/04/04 02:13:40;;;;;;;8.13;4.55;;;5.00;99.90;;;;;;5014349;28;20489;-88
2022/04/04 02:16:06;;;;;;;5.40;4.10;;;5.00;99.90;;;;;;5014128;28;20026;-88
2022/04/04 02:18:33;;;;;;;6.57;4.47;;;5.00;99.90;;;;;;5014361;28;20022;-88
2022/04/04 02:20:59;;;;;;;5.47;3.75;;;5.10;99.90;;;;;;5014237;28;20026;-88
2022/04/04 02:23:26;;;;;;;5.93;4.30;;;5.10;99.90;;;;;;5014368;28;20129;-87
2022/04/04 02:25:55;;;;;;;6.07;4.18;;;5.30;99.90;;;;;;5015579;28;20026;-88
2022/04/04 02:28:21;;;;;;;5.97;3.60;;;4.90;99.90;;;;;;5014525;28;20056;-88
2022/04/04 02:30:49;;;;;;;6.28;4.40;;;4.90;99.90;;;;;;5014147;28;20440;-88
2022/04/04 02:33:16;;;;;;;6.13;4.07;;;4.90;99.90;;;;;;5013890;28;20172;-88
2022/04/04 02:35:42;;;;;;;6.25;4.00;;;4.90;99.90;;;;;;5013837;28;20046;-88
2022/04/04 02:38:08;;;;;;;7.57;4.50;;;4.90;99.90;;;;;;5015151;28;20516;-88
2022/04/04 02:40:37;;;;;;;5.55;4.03;;;4.90;99.90;;;;;;5013884;28;20038;-88
2022/04/04 02:43:04;;;;;;;6.05;4.25;;;4.90;99.90;;;;;;5013674;28;20036;-88
2022/04/04 02:45:30;;;;;;;6.20;4.10;;;4.90;99.90;;;;;;5013830;28;20022;-88
2022/04/04 02:47:56;;;;;;;8.20;4.07;;;4.90;99.90;;;;;;5013743;28;20477;-88
2022/04/04 02:50:22;;;;;;;6.68;4.32;;;4.90;99.90;;;;;;5013471;28;20112;-88
2022/04/04 02:52:48;;;;;;;6.15;4.00;;;4.90;99.90;;;;;;5012798;28;20080;-88
2022/04/04 02:57:57;;;;;;;6.28;3.75;;;4.80;99.90;;;;;;5015444;28;20037;-89
2022/04/04 03:00:24;;;;;;;5.50;3.70;;;4.90;99.90;;;;;;5013465;28;20037;-89
2022/04/04 03:02:51;;;;;;;6.35;3.90;;;4.90;99.90;;;;;;5013548;28;20026;-89
2022/04/04 03:05:17;;;;;;;7.57;3.80;;;4.90;99.90;;;;;;5013495;28;20045;-89
2022/04/04 03:07:43;;;;;;;6.70;4.07;;;4.80;99.90;;;;;;5013400;28;20026;-89
2022/04/04 03:10:09;;;;;;;5.57;4.13;;;4.80;99.90;;;;;;5013361;28;20105;-89
2022/04/04 03:12:43;;;;;;;6.80;4.47;;;4.80;99.90;;;;;;5013388;28;20026;-89
2022/04/04 03:15:14;;;;;;;4.87;3.97;;;4.80;99.90;;;;;;5013458;28;20034;-90
2022/04/04 03:17:44;;;;;;;6.10;4.05;;;4.80;99.90;;;;;;5013300;28;20022;-89
2022/04/04 03:20:12;;;;;;;5.80;3.58;;;4.80;99.90;;;;;;5014885;28;20026;-89
2022/04/04 03:22:39;;;;;;;8.60;3.75;;;4.80;99.90;;;;;;5013129;28;20026;-89
2022/04/04 03:25:06;;;;;;;4.75;3.60;;;4.80;99.90;;;;;;5013179;28;20088;-90
2022/04/04 03:27:32;;;;;;;5.10;3.67;;;4.80;99.90;;;;;;5013692;28;20121;-90
2022/04/04 03:29:58;;;;;;;4.80;3.60;;;4.80;99.90;;;;;;5013234;28;20045;-89
2022/04/04 03:32:24;;;;;;;4.68;3.60;;;4.80;99.90;;;;;;5013346;28;20033;-89
2022/04/04 03:34:50;;;;;;;5.53;3.85;;;4.80;99.90;;;;;;5013198;28;20169;-89
2022/04/04 03:37:16;;;;;;;5.60;3.80;;;4.70;99.90;;;;;;5013400;28;20500;-89
2022/04/04 03:39:42;;;;;;;5.90;3.97;;;4.80;99.90;;;;;;5013173;28;20042;-90
2022/04/04 03:42:08;;;;;;;6.05;4.10;;;4.70;99.90;;;;;;5014458;28;20149;-90
2022/04/04 03:44:34;;;;;;;5.20;3.88;;;4.70;99.90;;;;;;5013271;28;20440;-89
2022/04/04 03:47:00;;;;;;;6.30;3.83;;;4.70;99.90;;;;;;5012915;28;20018;-90
2022/04/04 03:49:25;;;;;;;5.18;3.65;;;4.70;99.90;;;;;;5013323;28;20026;-90
2022/04/04 03:51:51;;;;;;;5.50;4.20;;;4.70;99.90;;;;;;5014266;28;20034;-90
2022/04/04 03:54:17;;;;;;;6.32;4.10;;;4.70;99.90;;;;;;5014408;28;20026;-90
2022/04/04 03:56:45;;;;;;;6.78;3.90;;;4.70;99.90;;;;;;5013386;28;20048;-90
2022/04/04 03:59:12;;;;;;;7.10;4.20;;;4.70;99.90;;;;;;5013247;28;20025;-90
2022/04/04 04:01:39;;;;;;;7.10;3.70;;;4.70;99.90;;;;;;5012928;28;20033;-90
2022/04/04 04:04:04;;;;;;;5.68;3.78;;;4.70;99.90;;;;;;5013260;28;20026;-90
2022/04/04 04:06:33;;;;;;;5.72;3.92;;;4.70;99.90;;;;;;5013255;28;20125;-90
2022/04/04 04:08:59;;;;;;;6.05;3.97;;;4.60;99.90;;;;;;5013042;28;20048;-89
2022/04/04 04:11:26;;;;;;;6.03;3.75;;;4.70;99.90;;;;;;5013328;28;20087;-91
2022/04/04 04:13:52;;;;;;;5.95;3.38;;;4.70;99.90;;;;;;5013083;28;20060;-90
2022/04/04 04:16:18;;;;;;;4.85;3.58;;;4.70;99.90;;;;;;5014286;28;20030;-91
2022/04/04 04:18:44;;;;;;;5.78;3.60;;;4.60;99.90;;;;;;5012991;28;20037;-91
2022/04/04 04:21:11;;;;;;;6.57;3.70;;;4.60;99.90;;;;;;5012918;28;20117;-91
2022/04/04 04:23:38;;;;;;;5.82;3.83;;;4.60;99.90;;;;;;5013035;28;20026;-91
2022/04/04 04:26:06;;;;;;;5.60;3.90;;;4.60;99.90;;;;;;5013144;28;20026;-91
2022/04/04 04:28:32;;;;;;;6.20;3.72;;;4.60;99.90;;;;;;5013090;28;20022;-91
2022/04/04 04:30:59;;;;;;;4.72;3.63;;;4.60;99.90;;;;;;5013056;28;20022;-92
2022/04/04 04:33:25;;;;;;;4.90;3.72;;;4.60;99.90;;;;;;5013175;28;20022;-91
2022/04/04 04:35:51;;;;;;;5.43;3.63;;;4.60;99.90;;;;;;5012981;28;20077;-91
2022/04/04 04:38:17;;;;;;;5.80;3.92;;;4.60;99.90;;;;;;5013104;28;20120;-91
2022/04/04 04:40:43;;;;;;;5.78;3.55;;;4.60;99.90;;;;;;5012952;28;20040;-91
2022/04/04 04:43:09;;;;;;;6.25;4.07;;;4.60;99.90;;;;;;5013316;28;20030;-93
2022/04/04 04:45:35;;;;;;;6.65;3.95;;;4.50;99.90;;;;;;5014154;28;20057;-91
2022/04/04 04:48:01;;;;;;;7.25;3.55;;;4.60;99.90;;;;;;5012933;28;20022;-93
2022/04/04 04:50:28;;;;;;;7.35;4.07;;;4.60;99.90;;;;;;5014007;28;20026;-92
2022/04/04 04:52:55;;;;;;;6.53;4.25;;;4.50;99.90;;;;;;5012767;28;20069;-91
2022/04/04 04:55:21;;;;;;;5.25;3.80;;;4.50;99.90;;;;;;5013438;28;20025;-91
2022/04/04 04:57:49;;;;;;;7.65;3.78;;;4.50;99.90;;;;;;5014191;28;20101;-91
2022/04/04 05:00:17;;;;;;;5.57;3.72;;;4.50;99.90;;;;;;5014246;28;20037;-91
2022/04/04 05:02:43;;;;;;;5.45;3.80;;;4.50;99.90;;;;;;5013185;28;20032;-91
2022/04/04 05:05:09;;;;;;;5.95;3.90;;;4.50;99.90;;;;;;5012774;28;20022;-91
2022/04/04 05:07:35;;;;;;;6.47;3.90;;;4.50;99.90;;;;;;5013071;28;20145;-92
2022/04/04 05:10:01;;;;;;;6.93;4.35;;;4.50;99.90;;;;;;5012875;28;20480;-91
2022/04/04 05:12:27;;;;;;;6.72;4.03;;;4.50;99.90;;;;;;5013137;28;20061;-91
2022/04/04 05:14:53;;;;;;;8.00;4.32;;;4.50;99.90;;;;;;5014328;28;20080;-91
2022/04/04 05:17:18;;;;;;;6.43;4.00;;;4.50;99.90;;;;;;5015321;28;20026;-91
2022/04/04 05:19:44;;;;;;;8.35;4.45;;;4.50;99.90;;;;;;5016556;28;20076;-91
2022/04/04 05:22:10;;;;;;;6.63;3.90;;;4.50;99.90;;;;;;5016626;28;20120;-91
2022/04/04 05:24:36;;;;;;;8.95;3.95;;;4.50;99.90;;;;;;5016480;28;20485;-90
2022/04/04 05:27:02;;;;;;;6.00;4.07;;;4.50;99.90;;;;;;5016526;28;20022;-92
2022/04/04 05:29:27;;;;;;;7.70;4.20;;;4.50;99.90;;;;;;5016178;28;20105;-91
2022/04/04 05:31:54;;;;;;;6.68;4.30;;;4.50;99.90;;;;;;5016071;28;20422;-91
2022/04/04 05:34:20;;;;;;;6.70;4.13;;;4.50;99.90;;;;;;5015992;28;20113;-91
2022/04/04 05:36:47;;;;;;;11.75;4.28;;;4.50;99.90;;;;;;5016198;28;20435;-92
2022/04/04 05:39:13;;;;;;;7.43;4.30;;;4.50;99.90;;;;;;5015838;28;20501;-91
2022/04/04 05:41:39;;;;;;;5.32;3.80;;;4.50;99.90;;;;;;5015538;28;20125;-90
2022/04/04 05:44:06;;;;;;;8.68;4.32;;;4.50;99.90;;;;;;5015560;28;20026;-91
2022/04/04 05:46:32;;;;;;;6.20;4.32;;;4.50;99.90;;;;;;5015534;28;20478;-90
2022/04/04 05:48:59;;;;;;;6.43;4.40;;;4.50;99.90;;;;;;5015436;28;20455;-90
2022/04/04 05:51:24;;;;;;;7.95;4.50;;;4.50;99.90;;;;;;5015404;28;20030;-90
2022/04/04 05:53:50;;;;;;;6.65;4.38;;;4.50;99.90;;;;;;5014894;28;20408;-90
2022/04/04 05:56:16;;;;;;;6.22;4.20;;;4.50;99.90;;;;;;5015201;28;20552;-89
2022/04/04 05:58:41;;;;;;;7.53;4.35;;;4.60;99.90;;;;;;5014934;28;20022;-90
2022/04/04 06:01:08;;;;;;;7.43;4.72;;;4.50;99.90;;;;;;5014774;28;20049;-90
2022/04/04 06:03:34;;;;;;;7.15;4.47;;;4.50;99.90;;;;;;5014923;28;20160;-89
2022/04/04 06:06:02;;;;;;;6.80;4.63;;;4.50;99.90;;;;;;5014861;28;20025;-89
2022/04/04 06:08:28;;;;;;;6.18;4.15;;;4.60;99.90;;;;;;5014692;28;20026;-89
2022/04/04 06:10:54;;;;;;;6.65;4.38;;;4.60;99.90;;;;;;5014302;28;20025;-88
2022/04/04 06:13:20;;;;;;;6.40;4.22;;;4.60;99.90;;;;;;5014042;28;20029;-89
2022/04/04 06:15:47;;;;;;;6.82;4.18;;;4.60;99.90;;;;;;5014470;28;20080;-88
2022/04/04 06:18:13;;;;;;;6.68;4.50;;;4.60;99.90;;;;;;5014085;28;20029;-88
2022/04/04 06:20:39;;;;;;;7.38;4.40;;;4.70;99.90;;;;;;5014064;28;20026;-88
2022/04/04 06:23:06;;;;;;;5.78;3.92;;;4.60;99.90;;;;;;5013841;28;20065;-87
2022/04/04 06:25:32;;;;;;;6.43;3.80;;;4.60;99.90;;;;;;5014228;28;20068;-87
2022/04/04 06:27:58;;;;;;;5.72;4.18;;;4.70;99.90;;;;;;5012751;28;20030;-88
2022/04/04 06:30:25;;;;;;;5.88;4.25;;;4.70;99.90;;;;;;5013671;28;20030;-88
2022/04/04 06:32:51;;;;;;;6.35;4.47;;;4.70;99.90;;;;;;5013674;28;20022;-88
2022/04/04 06:35:17;;;;;;;7.00;3.80;;;4.70;99.90;;;;;;5013623;28;20393;-88
2022/04/04 06:37:45;;;;;;;5.80;4.15;;;4.80;99.90;;;;;;5013861;28;20030;-88
2022/04/04 06:40:12;;;;;;;7.30;4.53;;;4.80;99.90;;;;;;5013693;28;20049;-87
2022/04/04 06:42:42;;;;;;;7.07;4.43;;;4.80;99.90;;;;;;5014580;28;20032;-93
2022/04/04 06:45:09;;;;;;;10.57;4.45;;;4.80;99.90;;;;;;5013661;28;20030;-84
2022/04/04 06:47:36;;;;;;;6.50;4.00;;;4.80;99.90;;;;;;5013341;28;20030;-84
2022/04/04 06:50:03;;;;;;;6.70;4.40;;;4.90;99.90;;;;;;5013292;28;20018;-84
2022/04/04 06:52:29;;;;;;;4.80;3.67;;;4.90;99.90;;;;;;5014462;28;20050;-84
2022/04/04 06:54:56;;;;;;;8.30;4.72;;;4.90;99.90;;;;;;5013307;28;20125;-83
2022/04/04 06:57:25;;;;;;;5.53;4.05;;;4.90;99.90;;;;;;5014399;28;20026;-84
2022/04/04 06:59:51;;;;;;;7.82;4.70;;;4.90;99.90;;;;;;5013320;28;20049;-84
2022/04/04 07:02:17;;;;;;;6.32;3.95;;;4.90;99.90;;;;;;5013126;28;20026;-84
2022/04/04 07:04:42;;;;;;;7.07;4.47;;;5.00;99.90;;;;;;5013035;28;20162;-83
2022/04/04 07:07:08;;;;;;;5.50;4.03;;;5.00;99.90;;;;;;5013058;28;20030;-84
2022/04/04 07:09:35;;;;;;;9.73;4.47;;;5.00;99.90;;;;;;5012929;28;20128;-83
2022/04/04 07:12:02;;;;;;;8.45;4.45;;;5.10;99.90;;;;;;5014096;28;20029;-83
2022/04/04 07:14:28;;;;;;;5.97;4.22;;;5.10;99.90;;;;;;5012949;28;20034;-83
2022/04/04 07:16:54;;;;;;;5.65;4.15;;;5.10;99.90;;;;;;5012923;28;20034;-83
2022/04/04 07:19:22;;;;;;;6.30;4.05;;;5.20;99.90;;;;;;5012822;28;20030;-83
2022/04/04 07:21:52;;;;;;;5.45;3.70;;;5.20;99.90;;;;;;5012962;28;20086;-83
2022/04/04 07:24:19;;;;;;;7.47;3.92;;;5.20;99.90;;;;;;5012676;28;20455;-83
2022/04/04 07:26:45;;;;;;;5.60;3.85;;;5.20;99.90;;;;;;5012635;28;20367;-83
2022/04/04 07:29:11;;;;;;;5.78;3.35;;;5.30;99.90;;;;;;5012653;28;20026;-83
2022/04/04 07:31:37;;;;;;;5.60;3.88;;;5.30;99.90;;;;;;5013091;28;20033;-83
2022/04/04 07:34:03;;;;;;;5.60;3.75;;;5.30;99.90;;;;;;5013941;28;20052;-83
2022/04/04 07:36:29;;;;;;;5.30;3.88;;;5.40;99.90;;;;;;5013225;28;20422;-83
2022/04/04 07:38:55;;;;;;;5.28;3.72;;;5.40;99.90;;;;;;5012274;28;20084;-84
2022/04/04 07:41:21;;;;;;;4.97;3.65;;;5.40;99.90;;;;;;5013574;28;20034;-83
2022/04/04 07:43:47;;;;;;;4.53;3.58;;;5.50;99.90;;;;;;5012549;28;20022;-83
2022/04/04 07:46:13;;;;;;;6.18;4.10;;;5.50;99.90;;;;;;5013749;28;20026;-83
2022/04/04 07:48:42;;;;;;;5.75;3.80;;;5.50;99.90;;;;;;5012470;28;20519;-82
2022/04/04 07:51:08;;;;;;;5.18;3.22;;;5.60;99.90;;;;;;5012102;28;20029;-83
2022/04/04 07:53:35;;;;;;;4.97;3.80;;;5.60;99.90;;;;;;5013323;28;20054;-84
2022/04/04 07:56:00;;;;;;;5.25;3.58;;;5.60;99.90;;;;;;5012187;28;20477;-83
2022/04/04 07:58:26;;;;;;;5.25;3.30;;;5.70;99.90;;;;;;5012198;28;20029;-83
2022/04/04 08:00:52;;;;;;;5.32;3.83;;;5.70;99.90;;;;;;5012153;28;20026;-83
2022/04/04 08:03:19;;;;;;;5.75;3.60;;;5.70;99.90;;;;;;5013271;28;20105;-83
2022/04/04 08:05:45;;;;;;;5.68;3.63;;;5.80;99.90;;;;;;5012053;28;20021;-82
2022/04/04 08:08:11;;;;;;;4.57;3.58;;;5.80;99.80;;;;;;5013522;28;20106;-82
2022/04/04 08:10:37;;;;;;;6.97;3.72;;;5.90;99.80;;;;;;5013530;28;20026;-82
2022/04/04 08:13:02;;;;;;;5.53;3.50;;;5.90;99.80;;;;;;5013332;28;20392;-83
2022/04/04 08:15:28;;;;;;;5.50;3.72;;;5.90;99.70;;;;;;5011899;28;20397;-83
2022/04/04 08:17:54;;;;;;;5.47;3.50;;;6.00;99.70;;;;;;5011852;28;20132;-83
2022/04/04 08:20:21;;;;;;;7.30;3.85;;;6.10;99.70;;;;;;5013179;28;20030;-83
2022/04/04 08:22:47;;;;;;;5.28;3.58;;;6.10;99.50;;;;;;5011769;28;20433;-83
2022/04/04 08:25:14;;;;;;;5.50;3.80;;;6.10;99.40;;;;;;5011849;28;20017;-83
2022/04/04 08:27:41;;;;;;;7.97;3.67;;;6.10;99.40;;;;;;5011773;28;20022;-83
2022/04/04 08:30:08;;;;;;;5.45;4.18;;;6.20;99.40;;;;;;5013123;28;20018;-83
2022/04/04 08:32:37;;;;;;;5.20;3.50;;;6.20;99.20;;;;;;5011726;28;20026;-82
2022/04/04 08:35:08;;;;;;;6.85;3.50;;;6.20;99.30;;;;;;5011782;28;20033;-83
2022/04/04 08:37:35;;;;;;;5.72;3.83;;;6.20;99.30;;;;;;5011966;28;20030;-83
2022/04/04 08:40:02;;;;;;;4.50;3.42;;;6.20;99.20;;;;;;5011753;28;20030;-82
2022/04/04 08:42:28;;;;;;;5.00;3.47;;;6.20;99.20;;;;;;5011626;28;20057;-83
2022/04/04 08:44:56;;;;;;;5.22;3.63;;;6.30;99.20;;;;;;5011659;28;20106;-83
2022/04/04 08:47:22;;;;;;;7.30;4.35;;;6.30;99.20;;;;;;5011693;28;20508;-83
2022/04/04 08:49:50;;;;;;;4.57;3.60;;;6.30;99.00;;;;;;5012865;28;20021;-83
2022/04/04 08:52:16;;;;;;;6.10;3.25;;;6.40;99.20;;;;;;5014629;28;20054;-83
2022/04/04 08:54:42;;;;;;;5.25;3.60;;;6.40;99.00;;;;;;5015368;28;20022;-83
2022/04/04 08:57:07;;;;;;;4.60;3.50;;;6.40;98.80;;;;;;5016663;28;20533;-83
2022/04/04 08:59:33;;;;;;;5.40;3.92;;;6.40;99.10;;;;;;5015661;28;20030;-82
2022/04/04 09:01:59;;;;;;;8.80;3.97;;;6.40;98.90;;;;;;5015238;28;20030;-84
2022/04/04 09:04:24;;;;;;;6.88;3.80;;;6.40;99.10;;;;;;5015175;28;20133;-83
2022/04/04 09:06:55;;;;;;;4.90;3.97;;;6.50;99.00;;;;;;5015032;28;20366;-83
2022/04/04 09:09:37;;;;;;;7.47;3.90;;;6.50;99.00;;;;;;5016406;28;20101;-84
2022/04/04 09:12:07;;;;;;;6.30;4.53;;;6.50;99.00;;;;;;5015134;28;20393;-85
2022/04/04 09:14:47;;;;;;;6.00;3.88;;;6.60;99.10;;;;;;5015133;28;20033;-86
2022/04/04 09:17:13;;;;;;;6.13;4.05;;;6.60;98.50;;;;;;5015118;28;20061;-86
2022/04/04 09:19:40;;;;;;;6.22;4.07;;;6.60;98.90;;;;;;5015004;28;20516;-87
2022/04/04 09:22:11;;;;;;;7.93;4.68;;;6.60;98.90;;;;;;5016408;28;20029;-86
2022/04/04 09:24:47;;;;;;;8.73;4.38;;;6.60;98.50;;;;;;5016629;28;20018;-87
2022/04/04 09:27:18;;;;;;;6.97;4.07;;;6.70;98.70;;;;;;5014920;28;20053;-86
2022/04/04 09:29:45;;;;;;;8.02;3.75;;;6.70;98.80;;;;;;5014907;28;20537;-86
2022/04/04 09:32:14;;;;;;;4.80;3.72;;;6.80;98.90;;;;;;5014748;28;20026;-86
2022/04/04 09:34:56;;;;;;;5.80;3.88;;;6.80;98.80;;;;;;5015990;28;20022;-85
2022/04/04 09:37:24;;;;;;;6.85;3.92;;;6.90;99.00;;;;;;5015966;28;20022;-85
2022/04/04 09:39:51;;;;;;;8.30;4.18;;;7.00;99.00;;;;;;5015964;28;20496;-85
2022/04/04 09:42:18;;;;;;;7.25;3.97;;;7.00;98.70;;;;;;5014451;28;20026;-84
2022/04/04 09:45:05;;;;;;;5.75;4.15;;;7.00;97.90;;;;;;5014541;28;20049;-84
2022/04/04 09:47:52;;;;;;;5.63;4.22;;;7.00;98.40;;;;;;5014448;28;20076;-84
2022/04/04 09:50:34;;;;;;;5.95;3.95;;;7.00;98.20;;;;;;5015804;28;20029;-83
2022/04/04 09:53:00;;;;;;;5.85;4.35;;;7.00;98.00;;;;;;5014197;28;20064;-84
2022/04/04 09:55:30;;;;;;;5.18;3.58;;;7.10;97.70;;;;;;5015604;28;20547;-84
2022/04/04 09:57:58;;;;;;;5.07;3.60;;;7.10;97.90;;;;;;5014498;28;20030;-84
2022/04/04 10:00:24;;;;;;;4.20;3.42;;;7.10;97.60;;;;;;5015766;28;20033;-83
2022/04/04 10:02:54;;;;;;;5.00;3.78;;;7.10;97.40;;;;;;5013799;28;20394;-84
2022/04/04 10:05:21;;;;;;;5.60;3.22;;;7.10;97.60;;;;;;5014129;28;20022;-85
2022/04/04 10:07:48;;;;;;;7.35;4.18;;;7.20;97.60;;;;;;5015334;28;20014;-84
2022/04/04 10:10:16;;;;;;;6.05;3.78;;;7.20;97.10;;;;;;5014085;28;20546;-85
2022/04/04 10:12:43;;;;;;;5.88;4.13;;;7.20;97.40;;;;;;5013958;28;20026;-83
2022/04/04 10:15:10;;;;;;;5.55;3.72;;;7.20;97.40;;;;;;5015253;28;20087;-83
2022/04/04 10:17:37;;;;;;;4.82;3.50;;;7.20;97.30;;;;;;5015210;28;20068;-84
2022/04/04 10:20:05;;;;;;;6.60;3.45;;;7.30;97.60;;;;;;5014683;28;20465;-83
2022/04/04 10:22:31;;;;;;;4.90;3.28;;;7.30;97.40;;;;;;5013832;28;20503;-84
2022/04/04 10:24:59;;;;;;;4.28;3.42;;;7.40;97.10;;;;;;5013727;28;20080;-84
2022/04/04 10:27:25;;;;;;;6.38;3.78;;;7.40;97.20;;;;;;5014967;28;20077;-84
2022/04/04 10:30:03;;;;;;;4.88;3.58;;;7.50;97.20;;;;;;5014891;28;20026;-84
2022/04/04 10:32:30;;;;;;;4.95;3.63;;;7.50;97.40;;;;;;5015139;28;20033;-84
2022/04/04 10:34:56;;;;;;;5.43;3.70;;;7.50;97.30;;;;;;5014110;28;20477;-84
2022/04/04 10:37:28;;;;;;;4.28;3.20;;;7.50;96.70;;;;;;5013556;28;20026;-83
2022/04/04 10:39:55;;;;;;;7.57;3.40;;;7.50;96.90;;;;;;5013550;28;20121;-84
2022/04/04 10:42:25;;;;;;;5.05;3.75;;;7.40;96.80;;;;;;5014670;28;20136;-83
2022/04/04 10:45:11;;;;;;;5.90;3.50;;;7.50;96.70;;;;;;5013317;28;20026;-84
2022/04/04 10:47:45;;;;;;;5.68;3.17;;;7.50;96.90;;;;;;5013335;28;20032;-83
2022/04/04 10:50:20;;;;;;;4.60;3.28;;;7.50;97.00;;;;;;5013297;28;20393;-84
2022/04/04 10:52:47;;;;;;;6.15;3.13;;;7.50;97.00;;;;;;5013022;28;20050;-83
2022/04/04 10:55:37;;;;;;;4.53;3.13;;;7.50;97.20;;;;;;5013226;28;20065;-84
2022/04/04 10:58:12;;;;;;;5.60;3.10;;;7.60;96.70;;;;;;5013191;28;20030;-84
2022/04/04 11:01:00;;;;;;;4.47;3.03;;;7.60;96.80;;;;;;5014326;28;20049;-84
2022/04/04 11:03:39;;;;;;;5.03;3.38;;;7.60;96.30;;;;;;5014350;28;20547;-81
2022/04/04 11:09:15;;;;;;;6.95;3.20;;;7.60;96.70;;;;;;5014813;28;20087;-85
2022/04/04 11:11:58;;;;;;;7.93;3.63;;;7.60;96.70;;;;;;5012861;28;20028;-84
2022/04/04 11:14:27;;;;;;;5.55;2.85;;;7.70;96.90;;;;;;5012229;28;20044;-84
2022/04/04 11:17:08;;;;;;;3.63;2.78;;;7.80;96.70;;;;;;5014137;28;20037;-84
2022/04/04 11:20:31;;;;;;;4.85;3.00;;;7.80;96.40;;;;;;5012778;28;20091;-84
2022/04/04 11:23:03;;;;;;;5.85;3.15;;;7.80;96.40;;;;;;4934462;29;20024;-85
2022/04/04 11:25:34;;;;;;;4.88;2.78;;;7.80;96.90;;;;;;5008037;28;20486;-85
2022/04/04 11:28:06;;;;;;;3.65;2.67;;;7.80;97.00;;;;;;5012713;28;20034;-84
2022/04/04 11:30:32;;;;;;;3.47;2.70;;;7.80;96.90;;;;;;5012682;28;20392;-85
2022/04/04 11:32:59;;;;;;;4.65;2.67;;;7.80;96.90;;;;;;5013884;28;20026;-85
2022/04/04 11:35:30;;;;;;;3.72;2.92;;;7.90;97.00;;;;;;5013818;28;20587;-84
2022/04/04 11:38:00;;;;;;;5.15;3.00;;;7.90;96.90;;;;;;5013750;28;20028;-84
2022/04/04 11:40:37;;;;;;;5.82;3.15;;;7.90;97.20;;;;;;5012537;28;20397;-85
2022/04/04 11:43:06;;;;;;;3.67;2.60;;;7.90;97.00;;;;;;5013656;28;20022;-85
2022/04/04 11:45:36;;;;;;;4.82;3.08;;;8.00;96.80;;;;;;5012358;28;20029;-84
2022/04/04 11:48:17;;;;;;;4.13;2.80;;;8.00;96.70;;;;;;5012404;28;20432;-84
2022/04/04 11:50:44;;;;;;;4.60;2.83;;;8.00;97.00;;;;;;5012211;28;20022;-84
2022/04/04 11:53:12;;;;;;;4.65;2.97;;;8.10;96.70;;;;;;5012049;28;20052;-84
2022/04/04 11:55:42;;;;;;;3.88;2.80;;;8.10;96.70;;;;;;5013488;28;20472;-85
2022/04/04 11:58:12;;;;;;;3.80;2.70;;;8.00;96.80;;;;;;5012120;28;20117;-84
2022/04/04 12:00:40;;;;;;;4.57;3.05;;;8.00;97.00;;;;;;5012157;28;20366;-84
2022/04/04 12:03:10;;;;;;;4.65;2.70;;;8.00;96.70;;;;;;5013273;28;20033;-85
2022/04/04 12:05:38;;;;;;;3.80;3.08;;;8.00;96.50;;;;;;5012122;28;20022;-84
2022/04/04 12:08:05;;;;;;;5.13;3.25;;;8.00;96.50;;;;;;5012035;28;20050;-85
2022/04/04 12:10:32;;;;;;;4.97;3.50;;;8.00;96.50;;;;;;5012014;28;20394;-81
2022/04/04 12:13:06;;;;;;;4.93;3.05;;;8.00;96.50;;;;;;5013653;28;20029;-83
2022/04/04 12:15:38;;;;;;;3.92;3.17;;;8.00;96.40;;;;;;5013286;28;20442;-84
2022/04/04 12:18:05;;;;;;;4.05;2.97;;;8.00;96.50;;;;;;5011937;28;20124;-85
2022/04/04 12:20:37;;;;;;;5.13;3.50;;;8.00;96.40;;;;;;5011870;28;20092;-83
2022/04/04 12:25:49;;;;;;;8.15;3.25;;;8.10;96.30;;;;;;5014792;28;20025;-85
2022/04/04 12:28:25;;;;;;;5.07;3.28;;;8.10;96.30;;;;;;5015809;28;20034;-84
2022/04/04 12:30:52;;;;;;;3.72;2.83;;;8.10;96.20;;;;;;5017150;28;20060;-85
2022/04/04 12:33:18;;;;;;;4.55;2.97;;;8.20;96.30;;;;;;5017068;28;20470;-85
2022/04/04 12:35:49;;;;;;;6.82;3.33;;;8.20;96.40;;;;;;5017036;28;20421;-85
2022/04/04 12:38:47;;;;;;;5.68;3.38;;;8.30;96.20;;;;;;5016270;28;20418;-85
2022/04/04 12:41:14;;;;;;;5.53;3.38;;;8.30;96.20;;;;;;4973748;28;20061;-83
2022/04/04 12:43:45;;;;;;;7.00;2.88;;;8.40;95.90;;;;;;5016965;28;20413;-87
2022/04/04 12:46:37;;;;;;;4.18;3.00;;;8.40;96.00;;;;;;5015615;28;20068;-85
2022/04/04 12:49:23;;;;;;;4.50;2.80;;;8.60;95.80;;;;;;5011337;28;20481;-85
2022/04/04 12:51:59;;;;;;;4.97;2.80;;;8.70;95.40;;;;;;5016716;28;20022;-86
2022/04/04 12:54:26;;;;;;;4.40;2.80;;;8.90;95.50;;;;;;5015533;28;20057;-84
2022/04/04 12:56:53;;;;;;;3.60;2.90;;;9.10;94.90;;;;;;5015408;28;20450;-84
2022/04/04 12:59:20;;;;;;;6.30;3.20;;;9.10;94.70;;;;;;5015360;28;20030;-83
2022/04/04 13:02:06;;;;;;;4.32;3.05;;;;;;;;;;5015224;28;20037;-83
2022/04/04 13:04:32;;;;;;;4.05;2.92;;;9.40;93.80;;;;;;5015140;28;20022;-84
2022/04/04 13:07:00;;;;;;;5.55;2.70;;;9.50;94.40;;;;;;5015202;28;20442;-85
2022/04/04 13:09:27;;;;;;;4.40;3.28;;;9.80;97.80;;;;;;5015170;28;20076;-86
2022/04/04 13:11:55;;;;;;;4.20;2.70;;;9.70;98.20;;;;;;5015071;28;20554;-84